sensor_id;sensor_type;location;lat;lon;timestamp;pressure;altitude;pressure_sealevel;temperature;humidity
9307;BME280;4691;47.612;7.610;2023-02-23T00:01:37;99276.41;;;9.11;25.89
9307;BME280;4691;47.612;7.610;2023-02-23T00:04:03;99282.59;;;9.11;25.88
9307;BME280;4691;47.612;7.610;2023-02-23T00:06:31;99294.44;;;9.07;25.90
9307;BME280;4691;47.612;7.610;2023-02-23T00:08:57;99300.53;;;9.09;25.88
9307;BME280;4691;47.612;7.610;2023-02-23T00:11:26;99299.00;;;9.05;25.90
9307;BME280;4691;47.612;7.610;2023-02-23T00:13:55;99306.34;;;9.02;25.96
9307;BME280;4691;47.612;7.610;2023-02-23T00:16:25;99313.59;;;9.00;25.98
9307;BME280;4691;47.612;7.610;2023-02-23T00:18:57;99322.25;;;9.03;26.04
9307;BME280;4691;47.612;7.610;2023-02-23T00:21:31;99319.50;;;9.05;26.04
9307;BME280;4691;47.612;7.610;2023-02-23T00:24:01;99319.28;;;9.08;26.05
9307;BME280;4691;47.612;7.610;2023-02-23T00:26:29;99319.09;;;9.11;26.05
9307;BME280;4691;47.612;7.610;2023-02-23T00:28:58;99325.88;;;9.02;26.13
9307;BME280;4691;47.612;7.610;2023-02-23T00:31:25;99322.66;;;8.97;26.15
9307;BME280;4691;47.612;7.610;2023-02-23T00:33:57;99327.69;;;9.02;26.20
9307;BME280;4691;47.612;7.610;2023-02-23T00:36:26;99316.34;;;8.98;26.28
9307;BME280;4691;47.612;7.610;2023-02-23T00:38:57;99327.22;;;8.95;26.29
9307;BME280;4691;47.612;7.610;2023-02-23T00:41:23;99347.41;;;8.99;26.28
9307;BME280;4691;47.612;7.610;2023-02-23T00:43:58;99345.69;;;8.98;26.33
9307;BME280;4691;47.612;7.610;2023-02-23T00:46:25;99346.09;;;8.92;26.43
9307;BME280;4691;47.612;7.610;2023-02-23T00:48:52;99352.94;;;8.82;26.50
9307;BME280;4691;47.612;7.610;2023-02-23T00:51:20;99348.66;;;8.79;26.53
9307;BME280;4691;47.612;7.610;2023-02-23T00:53:46;99354.56;;;8.84;26.52
9307;BME280;4691;47.612;7.610;2023-02-23T00:56:13;99360.75;;;8.85;26.62
9307;BME280;4691;47.612;7.610;2023-02-23T00:58:40;99363.22;;;8.88;26.62
9307;BME280;4691;47.612;7.610;2023-02-23T01:01:08;99368.19;;;8.94;26.60
9307;BME280;4691;47.612;7.610;2023-02-23T01:03:34;99367.22;;;8.95;26.62
9307;BME280;4691;47.612;7.610;2023-02-23T01:06:01;99360.91;;;8.96;26.64
9307;BME280;4691;47.612;7.610;2023-02-23T01:08:35;99347.22;;;9.02;26.64
9307;BME280;4691;47.612;7.610;2023-02-23T01:11:13;99326.06;;;8.99;26.72
9307;BME280;4691;47.612;7.610;2023-02-23T01:13:41;99316.91;;;9.03;26.74
9307;BME280;4691;47.612;7.610;2023-02-23T01:16:09;99297.47;;;9.01;26.82
9307;BME280;4691;47.612;7.610;2023-02-23T01:18:37;99290.44;;;9.00;26.86
9307;BME280;4691;47.612;7.610;2023-02-23T01:21:04;99290.84;;;8.94;26.94
9307;BME280;4691;47.612;7.610;2023-02-23T01:23:30;99294.25;;;8.96;26.95
9307;BME280;4691;47.612;7.610;2023-02-23T01:25:55;99296.06;;;8.96;26.95
9307;BME280;4691;47.612;7.610;2023-02-23T01:28:21;99303.28;;;8.93;26.96
9307;BME280;4691;47.612;7.610;2023-02-23T01:30:47;99308.75;;;8.92;26.98
9307;BME280;4691;47.612;7.610;2023-02-23T01:33:13;99310.66;;;8.90;27.00
9307;BME280;4691;47.612;7.610;2023-02-23T01:35:38;99326.84;;;8.87;27.02
9307;BME280;4691;47.612;7.610;2023-02-23T01:38:03;99332.19;;;8.87;27.01
9307;BME280;4691;47.612;7.610;2023-02-23T01:40:30;99332.19;;;8.87;27.01
9307;BME280;4691;47.612;7.610;2023-02-23T01:42:59;99338.28;;;8.89;26.99
9307;BME280;4691;47.612;7.610;2023-02-23T01:45:36;99339.97;;;8.90;27.00
9307;BME280;4691;47.612;7.610;2023-02-23T01:48:06;99341.88;;;8.88;27.03
9307;BME280;4691;47.612;7.610;2023-02-23T01:50:41;99339.91;;;8.91;27.05
9307;BME280;4691;47.612;7.610;2023-02-23T01:53:10;99327.00;;;8.98;27.04
9307;BME280;4691;47.612;7.610;2023-02-23T01:55:36;99307.50;;;8.98;27.10
9307;BME280;4691;47.612;7.610;2023-02-23T01:58:13;99284.25;;;9.00;27.14
9307;BME280;4691;47.612;7.610;2023-02-23T02:00:46;99275.56;;;8.96;27.21
9307;BME280;4691;47.612;7.610;2023-02-23T02:03:27;99279.28;;;8.93;27.25
9307;BME280;4691;47.612;7.610;2023-02-23T02:05:55;99272.75;;;8.85;27.33
9307;BME280;4691;47.612;7.610;2023-02-23T02:08:28;99270.28;;;8.82;27.36
9307;BME280;4691;47.612;7.610;2023-02-23T02:10:57;99273.88;;;8.81;27.37
9307;BME280;4691;47.612;7.610;2023-02-23T02:13:26;99275.41;;;8.85;27.37
9307;BME280;4691;47.612;7.610;2023-02-23T02:16:19;99278.84;;;8.87;27.38
9307;BME280;4691;47.612;7.610;2023-02-23T02:19:07;99267.97;;;8.90;27.37
9307;BME280;4691;47.612;7.610;2023-02-23T02:32:56;99210.81;;;8.94;27.59
9307;BME280;4691;47.612;7.610;2023-02-23T02:38:13;99204.50;;;8.95;27.65
9307;BME280;4691;47.612;7.610;2023-02-23T02:41:16;99196.94;;;8.89;27.72
9307;BME280;4691;47.612;7.610;2023-02-23T02:46:23;99199.19;;;8.95;27.74
9307;BME280;4691;47.612;7.610;2023-02-23T02:54:41;99195.75;;;8.93;27.82
9307;BME280;4691;47.612;7.610;2023-02-23T02:57:09;99201.84;;;8.95;27.83
9307;BME280;4691;47.612;7.610;2023-02-23T02:59:43;99195.47;;;8.98;27.83
9307;BME280;4691;47.612;7.610;2023-02-23T03:02:28;99197.28;;;8.97;27.85
9307;BME280;4691;47.612;7.610;2023-02-23T03:05:16;99186.31;;;9.02;27.84
9307;BME280;4691;47.612;7.610;2023-02-23T03:08:20;99179.91;;;9.04;27.87
9307;BME280;4691;47.612;7.610;2023-02-23T03:11:06;99174.97;;;8.98;27.96
9307;BME280;4691;47.612;7.610;2023-02-23T03:19:48;99133.78;;;8.89;25.17
9307;BME280;4691;47.612;7.610;2023-02-23T03:22:42;99110.31;;;8.94;25.62
9307;BME280;4691;47.612;7.610;2023-02-23T03:25:34;99120.13;;;8.94;25.87
9307;BME280;4691;47.612;7.610;2023-02-23T03:28:30;99112.69;;;8.99;26.01
9307;BME280;4691;47.612;7.610;2023-02-23T03:31:36;99121.91;;;8.93;26.21
9307;BME280;4691;47.612;7.610;2023-02-23T03:34:26;99128.13;;;8.94;26.33
9307;BME280;4691;47.612;7.610;2023-02-23T03:37:24;99123.31;;;8.86;26.45
9307;BME280;4691;47.612;7.610;2023-02-23T03:40:17;99131.41;;;8.85;26.55
9307;BME280;4691;47.612;7.610;2023-02-23T03:43:08;99144.13;;;8.94;26.56
9307;BME280;4691;47.612;7.610;2023-02-23T03:45:55;99143.47;;;8.90;26.63
9307;BME280;4691;47.612;7.610;2023-02-23T03:48:42;99153.28;;;8.90;26.70
9307;BME280;4691;47.612;7.610;2023-02-23T03:51:29;99148.91;;;8.89;26.75
9307;BME280;4691;47.612;7.610;2023-02-23T03:54:39;99162.81;;;8.94;26.77
9307;BME280;4691;47.612;7.610;2023-02-23T03:57:28;99154.06;;;8.92;26.83
9307;BME280;4691;47.612;7.610;2023-02-23T04:00:49;99159.59;;;8.89;26.90
9307;BME280;4691;47.612;7.610;2023-02-23T04:03:26;99157.47;;;8.94;26.89
9307;BME280;4691;47.612;7.610;2023-02-23T04:06:13;99163.44;;;8.98;26.92
9307;BME280;4691;47.612;7.610;2023-02-23T04:09:02;99168.22;;;8.92;26.97
9307;BME280;4691;47.612;7.610;2023-02-23T04:11:56;99165.16;;;8.99;26.98
9307;BME280;4691;47.612;7.610;2023-02-23T04:15:09;99157.28;;;8.97;27.06
9307;BME280;4691;47.612;7.610;2023-02-23T04:17:32;99150.41;;;8.93;27.15
9307;BME280;4691;47.612;7.610;2023-02-23T04:19:57;99142.97;;;8.98;27.18
9307;BME280;4691;47.612;7.610;2023-02-23T04:22:23;99135.81;;;8.99;27.21
9307;BME280;4691;47.612;7.610;2023-02-23T04:24:49;99128.47;;;9.02;27.24
9307;BME280;4691;47.612;7.610;2023-02-23T04:27:15;99123.34;;;8.99;27.29
9307;BME280;4691;47.612;7.610;2023-02-23T04:29:41;99114.38;;;9.00;27.35
9307;BME280;4691;47.612;7.610;2023-02-23T04:32:08;99114.38;;;9.00;27.39
9307;BME280;4691;47.612;7.610;2023-02-23T04:34:36;99101.81;;;9.02;27.42
9307;BME280;4691;47.612;7.610;2023-02-23T04:37:01;99102.00;;;8.99;27.48
9307;BME280;4691;47.612;7.610;2023-02-23T04:39:26;99106.47;;;8.99;27.53
9307;BME280;4691;47.612;7.610;2023-02-23T04:41:52;99100.28;;;8.98;27.56
9307;BME280;4691;47.612;7.610;2023-02-23T04:44:17;99097.53;;;9.00;27.59
9307;BME280;4691;47.612;7.610;2023-02-23T04:46:42;99096.47;;;9.02;27.62
9307;BME280;4691;47.612;7.610;2023-02-23T04:49:08;99098.16;;;9.03;27.64
9307;BME280;4691;47.612;7.610;2023-02-23T04:51:33;99096.88;;;9.09;27.66
9307;BME280;4691;47.612;7.610;2023-02-23T04:53:59;99094.34;;;9.07;27.72
9307;BME280;4691;47.612;7.610;2023-02-23T04:56:25;99078.09;;;8.98;27.85
9307;BME280;4691;47.612;7.610;2023-02-23T04:58:50;99075.34;;;8.99;27.88
9307;BME280;4691;47.612;7.610;2023-02-23T05:01:16;99073.72;;;8.97;27.94
9307;BME280;4691;47.612;7.610;2023-02-23T05:03:41;99079.78;;;8.99;27.95
9307;BME280;4691;47.612;7.610;2023-02-23T05:06:06;99078.94;;;8.98;27.97
9307;BME280;4691;47.612;7.610;2023-02-23T05:08:32;99076.06;;;9.01;27.98
9307;BME280;4691;47.612;7.610;2023-02-23T05:10:57;99078.09;;;8.98;28.03
9307;BME280;4691;47.612;7.610;2023-02-23T05:13:22;99091.53;;;8.96;28.05
9307;BME280;4691;47.612;7.610;2023-02-23T05:15:48;99093.25;;;8.97;28.04
9307;BME280;4691;47.612;7.610;2023-02-23T05:18:13;99101.03;;;9.00;28.03
9307;BME280;4691;47.612;7.610;2023-02-23T05:20:41;99098.38;;;9.00;28.05
9307;BME280;4691;47.612;7.610;2023-02-23T05:23:09;99100.28;;;8.98;28.09
9307;BME280;4691;47.612;7.610;2023-02-23T05:25:37;99096.00;;;8.96;28.13
9307;BME280;4691;47.612;7.610;2023-02-23T05:28:02;99106.03;;;8.92;28.17
9307;BME280;4691;47.612;7.610;2023-02-23T05:30:28;99107.34;;;8.99;28.12
9307;BME280;4691;47.612;7.610;2023-02-23T05:32:53;99105.00;;;9.07;28.11
9307;BME280;4691;47.612;7.610;2023-02-23T05:35:18;99093.28;;;9.10;28.13
9307;BME280;4691;47.612;7.610;2023-02-23T05:37:43;99086.03;;;9.12;28.18
9307;BME280;4691;47.612;7.610;2023-02-23T05:40:10;99077.91;;;9.13;28.23
9307;BME280;4691;47.612;7.610;2023-02-23T05:42:35;99063.63;;;9.14;28.29
9307;BME280;4691;47.612;7.610;2023-02-23T05:45:02;99052.19;;;9.12;28.35
9307;BME280;4691;47.612;7.610;2023-02-23T05:47:30;99038.97;;;9.11;28.43
9307;BME280;4691;47.612;7.610;2023-02-23T05:49:55;99016.22;;;9.05;28.52
9307;BME280;4691;47.612;7.610;2023-02-23T05:52:20;99001.91;;;9.06;28.55
9307;BME280;4691;47.612;7.610;2023-02-23T05:54:45;98996.81;;;9.03;28.62
9307;BME280;4691;47.612;7.610;2023-02-23T05:57:11;98985.28;;;9.03;28.66
9307;BME280;4691;47.612;7.610;2023-02-23T05:59:36;98978.88;;;9.05;28.68
9307;BME280;4691;47.612;7.610;2023-02-23T06:02:01;98970.97;;;9.04;28.75
9307;BME280;4691;47.612;7.610;2023-02-23T06:04:29;98960.22;;;9.05;28.77
9307;BME280;4691;47.612;7.610;2023-02-23T06:06:54;98955.84;;;9.04;28.81
9307;BME280;4691;47.612;7.610;2023-02-23T06:09:19;98947.09;;;9.02;28.86
9307;BME280;4691;47.612;7.610;2023-02-23T06:11:44;98943.91;;;8.97;28.94
9307;BME280;4691;47.612;7.610;2023-02-23T06:14:10;98947.09;;;9.02;28.93
9307;BME280;4691;47.612;7.610;2023-02-23T06:16:35;98950.69;;;9.01;28.96
9307;BME280;4691;47.612;7.610;2023-02-23T06:19:01;98956.69;;;8.92;29.05
9307;BME280;4691;47.612;7.610;2023-02-23T06:21:26;98952.84;;;8.96;29.01
9307;BME280;4691;47.612;7.610;2023-02-23T06:23:51;98962.56;;;8.97;29.03
9307;BME280;4691;47.612;7.610;2023-02-23T06:26:17;98976.97;;;8.94;29.04
9307;BME280;4691;47.612;7.610;2023-02-23T06:28:42;98978.88;;;8.92;29.06
9307;BME280;4691;47.612;7.610;2023-02-23T06:31:08;98984.84;;;8.96;29.05
9307;BME280;4691;47.612;7.610;2023-02-23T06:33:33;98992.75;;;8.98;29.06
9307;BME280;4691;47.612;7.610;2023-02-23T06:35:58;98993.59;;;8.98;29.05
9307;BME280;4691;47.612;7.610;2023-02-23T06:38:24;98997.56;;;9.05;29.03
9307;BME280;4691;47.612;7.610;2023-02-23T06:40:50;98995.19;;;9.01;29.10
9307;BME280;4691;47.612;7.610;2023-02-23T06:43:15;98993.38;;;9.01;29.13
9307;BME280;4691;47.612;7.610;2023-02-23T06:45:40;98997.56;;;9.05;29.16
9307;BME280;4691;47.612;7.610;2023-02-23T06:48:06;98998.00;;;8.99;29.26
9307;BME280;4691;47.612;7.610;2023-02-23T06:50:31;98989.22;;;8.97;29.33
9307;BME280;4691;47.612;7.610;2023-02-23T06:52:57;98995.84;;;8.91;29.42
9307;BME280;4691;47.612;7.610;2023-02-23T06:55:23;98992.13;;;8.94;29.44
9307;BME280;4691;47.612;7.610;2023-02-23T06:57:48;98991.91;;;8.97;29.45
9307;BME280;4691;47.612;7.610;2023-02-23T07:00:15;98986.56;;;8.97;29.49
9307;BME280;4691;47.612;7.610;2023-02-23T07:02:42;98983.47;;;9.03;29.48
9307;BME280;4691;47.612;7.610;2023-02-23T07:05:09;98963.84;;;9.04;29.54
9307;BME280;4691;47.612;7.610;2023-02-23T07:07:34;98947.63;;;9.07;29.60
9307;BME280;4691;47.612;7.610;2023-02-23T07:10:00;98926.81;;;9.00;29.76
9307;BME280;4691;47.612;7.610;2023-02-23T07:12:25;98909.44;;;8.94;29.86
9307;BME280;4691;47.612;7.610;2023-02-23T07:14:50;98891.84;;;9.04;29.83
9307;BME280;4691;47.612;7.610;2023-02-23T07:17:16;98865.78;;;9.08;29.88
9307;BME280;4691;47.612;7.610;2023-02-23T07:19:42;98854.03;;;9.10;29.94
9307;BME280;4691;47.612;7.610;2023-02-23T07:22:07;98844.13;;;9.12;30.00
9307;BME280;4691;47.612;7.610;2023-02-23T07:24:32;98833.97;;;9.18;29.99
9307;BME280;4691;47.612;7.610;2023-02-23T07:26:58;98806.84;;;9.24;29.99
9307;BME280;4691;47.612;7.610;2023-02-23T07:29:23;98803.28;;;9.36;30.03
9307;BME280;4691;47.612;7.610;2023-02-23T07:31:49;98777.75;;;9.32;30.17
9307;BME280;4691;47.612;7.610;2023-02-23T07:34:14;98748.50;;;9.43;30.21
9307;BME280;4691;47.612;7.610;2023-02-23T07:36:40;98721.81;;;9.43;30.37
9307;BME280;4691;47.612;7.610;2023-02-23T07:39:05;98730.38;;;9.35;30.66
9307;BME280;4691;47.612;7.610;2023-02-23T07:41:31;98698.47;;;9.34;30.85
9307;BME280;4691;47.612;7.610;2023-02-23T07:43:58;98672.03;;;9.42;30.92
9307;BME280;4691;47.612;7.610;2023-02-23T07:46:23;98647.91;;;9.44;31.17
9307;BME280;4691;47.612;7.610;2023-02-23T07:48:49;98630.13;;;9.67;31.39
9307;BME280;4691;47.612;7.610;2023-02-23T07:51:15;98577.38;;;9.81;31.91
9307;BME280;4691;47.612;7.610;2023-02-23T07:53:41;98517.38;;;9.63;33.20
9307;BME280;4691;47.612;7.610;2023-02-23T07:56:08;98449.53;;;9.88;34.04
9307;BME280;4691;47.612;7.610;2023-02-23T07:58:35;98370.34;;;9.98;35.25
9307;BME280;4691;47.612;7.610;2023-02-23T08:01:01;98314.16;;;10.21;36.31
9307;BME280;4691;47.612;7.610;2023-02-23T08:03:26;98223.44;;;10.19;38.82
9307;BME280;4691;47.612;7.610;2023-02-23T08:05:51;98151.28;;;10.19;41.91
9307;BME280;4691;47.612;7.610;2023-02-23T08:08:16;98082.34;;;10.03;46.26
9307;BME280;4691;47.612;7.610;2023-02-23T08:10:42;98006.06;;;10.20;49.73
9307;BME280;4691;47.612;7.610;2023-02-23T08:13:07;97935.75;;;10.20;58.43
9307;BME280;4691;47.612;7.610;2023-02-23T08:15:32;97863.47;;;10.51;64.52
9307;BME280;4691;47.612;7.610;2023-02-23T08:17:58;97791.28;;;10.60;76.45
9307;BME280;4691;47.612;7.610;2023-02-23T08:20:24;97733.47;;;10.69;92.81
9307;BME280;4691;47.612;7.610;2023-02-23T08:22:53;97675.78;;;10.66;100.00
9307;BME280;4691;47.612;7.610;2023-02-23T08:25:19;97608.13;;;11.02;100.00
9307;BME280;4691;47.612;7.610;2023-02-23T08:27:45;97515.41;;;11.28;100.00
9307;BME280;4691;47.612;7.610;2023-02-23T08:30:11;97444.75;;;11.13;100.00
9307;BME280;4691;47.612;7.610;2023-02-23T08:32:38;97413.81;;;11.45;100.00
9307;BME280;4691;47.612;7.610;2023-02-23T08:35:03;97400.94;;;11.14;100.00
9307;BME280;4691;47.612;7.610;2023-02-23T08:37:29;97393.09;;;11.47;100.00
9307;BME280;4691;47.612;7.610;2023-02-23T08:39:55;97394.44;;;11.17;100.00
9307;BME280;4691;47.612;7.610;2023-02-23T08:42:21;97414.28;;;11.40;100.00
9307;BME280;4691;47.612;7.610;2023-02-23T08:44:47;97425.00;;;11.40;100.00
9307;BME280;4691;47.612;7.610;2023-02-23T08:47:16;97447.94;;;11.43;100.00
9307;BME280;4691;47.612;7.610;2023-02-23T08:49:50;97451.63;;;11.42;100.00
9307;BME280;4691;47.612;7.610;2023-02-23T08:52:16;97459.50;;;11.43;100.00
9307;BME280;4691;47.612;7.610;2023-02-23T08:54:45;97457.38;;;11.55;100.00
9307;BME280;4691;47.612;7.610;2023-02-23T08:57:11;97475.22;;;11.46;100.00
9307;BME280;4691;47.612;7.610;2023-02-23T08:59:36;97471.81;;;11.96;100.00
9307;BME280;4691;47.612;7.610;2023-02-23T09:02:03;97495.50;;;12.09;100.00
9307;BME280;4691;47.612;7.610;2023-02-23T09:04:30;97517.94;;;12.08;100.00
9307;BME280;4691;47.612;7.610;2023-02-23T09:06:56;97524.34;;;12.15;100.00
9307;BME280;4691;47.612;7.610;2023-02-23T09:09:21;97539.38;;;12.08;100.00
9307;BME280;4691;47.612;7.610;2023-02-23T09:11:47;97547.84;;;12.38;100.00
9307;BME280;4691;47.612;7.610;2023-02-23T09:14:12;97619.94;;;11.89;100.00
9307;BME280;4691;47.612;7.610;2023-02-23T09:16:37;97618.78;;;12.17;100.00
9307;BME280;4691;47.612;7.610;2023-02-23T09:19:03;97635.06;;;12.24;100.00
9307;BME280;4691;47.612;7.610;2023-02-23T09:21:28;97643.66;;;12.62;100.00
9307;BME280;4691;47.612;7.610;2023-02-23T09:23:54;97699.13;;;13.04;100.00
9307;BME280;4691;47.612;7.610;2023-02-23T09:26:21;97745.59;;;13.04;100.00
9307;BME280;4691;47.612;7.610;2023-02-23T09:28:46;97795.03;;;13.28;100.00
9307;BME280;4691;47.612;7.610;2023-02-23T09:31:15;97791.19;;;13.04;100.00
9307;BME280;4691;47.612;7.610;2023-02-23T09:33:41;97774.69;;;13.25;100.00
9307;BME280;4691;47.612;7.610;2023-02-23T09:36:08;97811.09;;;13.54;100.00
9307;BME280;4691;47.612;7.610;2023-02-23T09:38:36;97792.13;;;13.64;100.00
9307;BME280;4691;47.612;7.610;2023-02-23T09:41:02;97765.22;;;13.39;100.00
9307;BME280;4691;47.612;7.610;2023-02-23T09:43:41;97765.09;;;13.23;100.00
9307;BME280;4691;47.612;7.610;2023-02-23T09:48:55;97798.81;;;13.17;100.00
9307;BME280;4691;47.612;7.610;2023-02-23T09:51:23;97793.56;;;13.92;100.00
9307;BME280;4691;47.612;7.610;2023-02-23T09:53:56;97818.44;;;13.18;100.00
9307;BME280;4691;47.612;7.610;2023-02-23T09:56:46;97803.47;;;13.07;100.00
9307;BME280;4691;47.612;7.610;2023-02-23T09:59:14;97777.53;;;13.24;100.00
9307;BME280;4691;47.612;7.610;2023-02-23T10:04:27;97812.16;;;13.78;100.00
9307;BME280;4691;47.612;7.610;2023-02-23T10:07:06;97829.13;;;13.94;100.00
9307;BME280;4691;47.612;7.610;2023-02-23T10:17:58;97976.56;;;15.23;100.00
9307;BME280;4691;47.612;7.610;2023-02-23T10:20:33;98001.09;;;15.45;100.00
9307;BME280;4691;47.612;7.610;2023-02-23T10:23:05;98013.16;;;15.98;100.00
9307;BME280;4691;47.612;7.610;2023-02-23T10:25:35;98065.84;;;17.42;100.00
9307;BME280;4691;47.612;7.610;2023-02-23T10:28:02;98113.00;;;16.85;100.00
9307;BME280;4691;47.612;7.610;2023-02-23T10:30:31;98236.13;;;20.11;100.00
9307;BME280;4691;47.612;7.610;2023-02-23T10:33:17;98311.03;;;20.98;100.00
9307;BME280;4691;47.612;7.610;2023-02-23T10:35:45;98361.44;;;21.63;100.00
9307;BME280;4691;47.612;7.610;2023-02-23T10:38:14;98367.47;;;20.31;100.00
9307;BME280;4691;47.612;7.610;2023-02-23T10:40:42;98377.22;;;19.30;100.00
9307;BME280;4691;47.612;7.610;2023-02-23T10:43:10;98389.81;;;20.12;100.00
9307;BME280;4691;47.612;7.610;2023-02-23T10:45:49;98416.22;;;21.53;100.00
9307;BME280;4691;47.612;7.610;2023-02-23T10:48:28;98431.97;;;21.65;100.00
9307;BME280;4691;47.612;7.610;2023-02-23T10:50:56;98448.25;;;21.93;100.00
9307;BME280;4691;47.612;7.610;2023-02-23T10:53:32;98452.25;;;21.97;100.00
9307;BME280;4691;47.612;7.610;2023-02-23T10:58:30;98466.69;;;19.59;100.00
9307;BME280;4691;47.612;7.610;2023-02-23T11:00:58;98469.16;;;21.08;100.00
9307;BME280;4691;47.612;7.610;2023-02-23T11:03:46;98486.50;;;19.07;100.00
9307;BME280;4691;47.612;7.610;2023-02-23T11:06:33;98420.78;;;17.02;100.00
9307;BME280;4691;47.612;7.610;2023-02-23T11:09:22;98298.59;;;15.00;100.00
9307;BME280;4691;47.612;7.610;2023-02-23T11:12:03;98191.19;;;14.89;100.00
9307;BME280;4691;47.612;7.610;2023-02-23T11:14:30;98206.94;;;16.01;100.00
9307;BME280;4691;47.612;7.610;2023-02-23T11:16:58;98234.22;;;16.15;100.00
9307;BME280;4691;47.612;7.610;2023-02-23T11:19:33;98271.19;;;18.04;100.00
9307;BME280;4691;47.612;7.610;2023-02-23T11:22:01;98384.66;;;22.14;100.00
9307;BME280;4691;47.612;7.610;2023-02-23T11:24:28;98390.72;;;22.77;100.00
9307;BME280;4691;47.612;7.610;2023-02-23T11:27:02;98392.84;;;20.60;100.00
9307;BME280;4691;47.612;7.610;2023-02-23T11:29:40;98414.94;;;21.00;100.00
9307;BME280;4691;47.612;7.610;2023-02-23T11:32:14;98425.00;;;20.56;100.00
9307;BME280;4691;47.612;7.610;2023-02-23T11:34:42;98414.38;;;22.02;100.00
9307;BME280;4691;47.612;7.610;2023-02-23T11:40:00;98429.56;;;21.27;100.00
9307;BME280;4691;47.612;7.610;2023-02-23T11:42:32;98415.50;;;21.45;100.00
9307;BME280;4691;47.612;7.610;2023-02-23T11:47:40;98410.78;;;21.32;100.00
9307;BME280;4691;47.612;7.610;2023-02-23T11:50:06;98419.19;;;20.81;100.00
9307;BME280;4691;47.612;7.610;2023-02-23T11:52:33;98417.97;;;21.40;100.00
9307;BME280;4691;47.612;7.610;2023-02-23T11:55:04;98420.66;;;20.26;100.00
9307;BME280;4691;47.612;7.610;2023-02-23T11:57:33;98418.44;;;21.78;100.00
9307;BME280;4691;47.612;7.610;2023-02-23T12:00:07;98427.44;;;20.36;100.00
9307;BME280;4691;47.612;7.610;2023-02-23T12:02:59;98415.97;;;21.27;100.00
9307;BME280;4691;47.612;7.610;2023-02-23T12:05:27;98418.91;;;20.39;100.00
9307;BME280;4691;47.612;7.610;2023-02-23T12:08:03;98411.97;;;20.95;100.00
9307;BME280;4691;47.612;7.610;2023-02-23T12:10:36;98404.28;;;21.89;100.00
9307;BME280;4691;47.612;7.610;2023-02-23T12:13:35;98408.97;;;22.15;100.00
9307;BME280;4691;47.612;7.610;2023-02-23T12:16:17;98421.63;;;20.97;100.00
9307;BME280;4691;47.612;7.610;2023-02-23T12:19:02;98419.16;;;21.59;100.00
9307;BME280;4691;47.612;7.610;2023-02-23T12:21:34;98431.09;;;20.43;100.00
9307;BME280;4691;47.612;7.610;2023-02-23T12:27:21;98432.84;;;20.51;100.00
9307;BME280;4691;47.612;7.610;2023-02-23T12:30:02;98411.19;;;21.57;100.00
9307;BME280;4691;47.612;7.610;2023-02-23T12:32:43;98425.59;;;20.73;100.00
9307;BME280;4691;47.612;7.610;2023-02-23T12:37:46;98447.28;;;18.49;100.00
9307;BME280;4691;47.612;7.610;2023-02-23T12:40:27;98421.09;;;19.78;100.00
9307;BME280;4691;47.612;7.610;2023-02-23T12:48:17;98403.25;;;20.20;100.00
9307;BME280;4691;47.612;7.610;2023-02-23T12:50:52;98402.19;;;21.57;100.00
9307;BME280;4691;47.612;7.610;2023-02-23T12:56:13;98414.56;;;21.03;100.00
9307;BME280;4691;47.612;7.610;2023-02-23T13:01:58;98420.09;;;20.52;100.00
9307;BME280;4691;47.612;7.610;2023-02-23T13:04:40;98418.38;;;19.48;100.00
9307;BME280;4691;47.612;7.610;2023-02-23T13:12:50;98415.44;;;21.66;100.00
9307;BME280;4691;47.612;7.610;2023-02-23T13:18:03;98412.28;;;22.04;100.00
9307;BME280;4691;47.612;7.610;2023-02-23T13:20:44;98427.03;;;23.11;100.00
9307;BME280;4691;47.612;7.610;2023-02-23T13:23:35;98425.28;;;21.67;100.00
9307;BME280;4691;47.612;7.610;2023-02-23T13:31:56;98397.25;;;24.08;100.00
9307;BME280;4691;47.612;7.610;2023-02-23T13:34:32;98396.50;;;23.87;100.00
9307;BME280;4691;47.612;7.610;2023-02-23T13:36:59;98397.63;;;24.18;100.00
9307;BME280;4691;47.612;7.610;2023-02-23T13:39:51;98397.72;;;23.98;100.00
9307;BME280;4691;47.612;7.610;2023-02-23T13:42:26;98359.59;;;25.55;100.00
9307;BME280;4691;47.612;7.610;2023-02-23T13:45:27;98376.34;;;24.72;100.00
9307;BME280;4691;47.612;7.610;2023-02-23T13:53:31;98367.78;;;25.37;100.00
9307;BME280;4691;47.612;7.610;2023-02-23T13:55:59;98371.34;;;24.62;100.00
9307;BME280;4691;47.612;7.610;2023-02-23T13:58:30;98416.28;;;22.76;100.00
9307;BME280;4691;47.612;7.610;2023-02-23T14:01:09;98359.16;;;24.58;100.00
9307;BME280;4691;47.612;7.610;2023-02-23T14:03:50;98353.78;;;25.02;100.00
9307;BME280;4691;47.612;7.610;2023-02-23T14:06:17;98420.00;;;21.59;100.00
9307;BME280;4691;47.612;7.610;2023-02-23T14:08:45;98362.94;;;24.89;100.00
9307;BME280;4691;47.612;7.610;2023-02-23T14:14:01;98398.75;;;21.76;100.00
9307;BME280;4691;47.612;7.610;2023-02-23T14:16:27;98426.59;;;21.43;100.00
9307;BME280;4691;47.612;7.610;2023-02-23T14:19:10;98403.94;;;23.14;100.00
9307;BME280;4691;47.612;7.610;2023-02-23T14:21:47;98357.16;;;24.02;100.00
9307;BME280;4691;47.612;7.610;2023-02-23T14:24:24;98416.22;;;21.04;100.00
9307;BME280;4691;47.612;7.610;2023-02-23T14:29:28;98395.84;;;22.26;100.00
9307;BME280;4691;47.612;7.610;2023-02-23T14:32:02;98352.63;;;23.82;100.00
9307;BME280;4691;47.612;7.610;2023-02-23T14:37:36;98401.44;;;20.85;100.00
9307;BME280;4691;47.612;7.610;2023-02-23T14:40:20;98416.72;;;20.28;100.00
9307;BME280;4691;47.612;7.610;2023-02-23T14:42:52;98416.84;;;20.99;100.00
9307;BME280;4691;47.612;7.610;2023-02-23T14:45:36;98385.28;;;21.61;100.00
9307;BME280;4691;47.612;7.610;2023-02-23T14:48:09;98399.53;;;21.07;100.00
9307;BME280;4691;47.612;7.610;2023-02-23T14:50:37;98386.69;;;21.92;100.00
9307;BME280;4691;47.612;7.610;2023-02-23T14:53:06;98407.38;;;20.16;100.00
9307;BME280;4691;47.612;7.610;2023-02-23T14:55:40;98377.56;;;22.13;100.00
9307;BME280;4691;47.612;7.610;2023-02-23T14:58:27;98406.16;;;20.55;100.00
9307;BME280;4691;47.612;7.610;2023-02-23T15:00:53;98404.38;;;20.26;100.00
9307;BME280;4691;47.612;7.610;2023-02-23T15:03:19;98394.06;;;20.21;100.00
9307;BME280;4691;47.612;7.610;2023-02-23T15:05:50;98390.41;;;21.15;100.00
9307;BME280;4691;47.612;7.610;2023-02-23T15:08:20;98381.41;;;20.64;100.00
9307;BME280;4691;47.612;7.610;2023-02-23T15:10:50;98389.19;;;20.96;100.00
9307;BME280;4691;47.612;7.610;2023-02-23T15:13:30;98396.72;;;20.14;100.00
9307;BME280;4691;47.612;7.610;2023-02-23T15:16:00;98382.72;;;21.53;100.00
9307;BME280;4691;47.612;7.610;2023-02-23T15:21:51;98400.47;;;19.98;100.00
9307;BME280;4691;47.612;7.610;2023-02-23T15:24:22;98387.38;;;21.59;100.00